Terminal Aerodrome Forecast
Issued by NWS Shreveport, LA

Home | Current Version | Previous Version | Text Only | Print | Product List | Glossary On
Versions: 1 2 3 4 5 6 7 8 9 10 11 12 13 14 15 16 17
000
FTUS44 KSHV 031742
TAFSHV
TAF
KSHV 031742Z 0318/0418 32010KT P6SM SCT030 BKN040
      TEMPO 0318/0320 BKN030 OVC040
     FM032000 34010KT P6SM BKN045
     FM040000 32006KT P6SM BKN050 BKN120
     FM040400 31003KT P6SM BKN120
     FM041000 32003KT P6SM BKN250
     FM041500 29007KT P6SM SCT045 SCT130=

USA.gov is the U.S. government's official web portal to all federal, state and local government web resources and services.